Time;durP1;ratioP1;P1;durP2;ratioP2;P2;SDS_P1;SDS_P2;PMS_P1;PMS_P2;Temp;Humidity;BMP_temperature;BMP_pressure;BME280_temperature;BME280_humidity;BME280_pressure;Samples;Min_cycle;Max_cycle;Signal;HPM_P1;HPM_P2
2022/08/13 00:02:12;;;;;;;5.80;3.30;;;;;;;25.13;41.04;101670.72;5020199;28;20395;-81
2022/08/13 00:04:42;;;;;;;5.45;3.38;;;;;;;25.03;41.33;101677.84;5041079;28;20043;-80
2022/08/13 00:07:08;;;;;;;5.85;3.72;;;;;;;25.09;41.43;101678.28;5038380;28;20041;-81
2022/08/13 00:09:37;;;;;;;7.25;3.45;;;;;;;25.08;40.98;101668.28;5030417;28;20037;-81
2022/08/13 00:14:47;;;;;;;5.50;3.30;;;;;;;25.07;40.94;101675.06;5045336;28;20064;-81
2022/08/13 00:17:14;;;;;;;6.80;3.72;;;;;;;25.04;41.16;101681.44;5049502;28;20033;-81
2022/08/13 00:19:43;;;;;;;8.65;4.10;;;;;;;25.01;41.07;101674.59;5049704;28;20063;-81
2022/08/13 00:22:12;;;;;;;4.90;3.85;;;;;;;25.02;41.18;101669.84;5047991;28;20039;-81
2022/08/13 00:24:38;;;;;;;4.93;3.67;;;;;;;25.00;41.19;101678.59;5036760;28;20029;-81
2022/08/13 00:27:05;;;;;;;8.40;3.67;;;;;;;25.01;41.33;101671.00;5028863;28;20271;-81
2022/08/13 00:29:31;;;;;;;6.97;4.28;;;;;;;25.00;41.30;101672.19;5028787;28;20098;-80
2022/08/13 00:31:57;;;;;;;8.35;4.40;;;;;;;25.01;41.50;101669.00;5046713;28;20423;-81
2022/08/13 00:34:23;;;;;;;8.35;4.68;;;;;;;25.03;41.77;101660.25;5040528;28;20104;-81
2022/08/13 00:36:49;;;;;;;7.57;4.35;;;;;;;25.03;41.77;101658.28;5049293;28;20033;-81
2022/08/13 00:39:15;;;;;;;6.60;3.42;;;;;;;24.96;41.74;101660.22;5044835;28;20053;-80
2022/08/13 00:41:45;;;;;;;8.38;4.13;;;;;;;24.81;41.97;101665.69;5029856;28;20056;-80
2022/08/13 00:44:16;;;;;;;5.43;3.88;;;;;;;24.76;42.09;101662.44;5038393;28;20112;-81
2022/08/13 00:46:43;;;;;;;4.65;3.70;;;;;;;24.74;41.55;101660.06;5048193;28;20406;-81
2022/08/13 00:49:10;;;;;;;6.00;4.00;;;;;;;24.74;41.99;101657.25;5039883;28;20035;-81
2022/08/13 00:51:38;;;;;;;6.20;3.63;;;;;;;24.71;41.67;101660.84;5033205;28;20061;-81
2022/08/13 00:54:08;;;;;;;7.97;4.43;;;;;;;24.58;42.40;101656.72;5035544;28;20039;-80
2022/08/13 00:56:34;;;;;;;6.90;4.05;;;;;;;24.56;42.15;101657.13;5049273;28;20025;-81
2022/08/13 00:59:11;;;;;;;5.68;4.30;;;;;;;24.55;42.11;101655.50;5049640;28;20025;-80
2022/08/13 01:01:38;;;;;;;6.22;3.83;;;;;;;24.58;42.33;101651.94;5047610;28;20359;-81
2022/08/13 01:04:06;;;;;;;7.95;3.97;;;;;;;24.56;42.26;101657.13;5044464;28;20090;-80
2022/08/13 01:06:35;;;;;;;9.20;4.43;;;;;;;24.61;41.91;101653.94;5017128;28;20424;-80
2022/08/13 01:09:03;;;;;;;12.35;4.43;;;;;;;24.63;42.25;101656.34;5049118;28;20085;-80
2022/08/13 01:11:32;;;;;;;9.85;5.90;;;;;;;24.66;42.40;101660.38;5037016;28;20026;-81
2022/08/13 01:14:04;;;;;;;7.47;5.50;;;;;;;24.62;42.62;101663.13;5040952;28;20128;-80
2022/08/13 01:16:36;;;;;;;13.73;6.85;;;;;;;24.61;42.25;101651.16;5047179;28;20475;-80
2022/08/13 01:19:09;;;;;;;6.60;5.85;;;;;;;24.59;42.17;101653.53;5039422;28;20029;-81
2022/08/13 01:21:44;;;;;;;8.23;5.45;;;;;;;24.58;42.26;101651.94;5040498;28;20387;-80
2022/08/13 01:24:11;;;;;;;19.85;5.80;;;;;;;24.50;42.42;101649.50;5037342;28;20468;-81
2022/08/13 01:26:39;;;;;;;8.60;5.13;;;;;;;24.52;42.31;101652.69;5033660;28;20033;-80
2022/08/13 01:29:06;;;;;;;5.35;4.40;;;;;;;24.50;42.70;101644.69;5037760;28;20017;-80
2022/08/13 01:31:34;;;;;;;9.30;4.65;;;;;;;24.48;42.49;101646.25;5052299;28;20386;-80
2022/08/13 01:34:00;;;;;;;5.93;5.07;;;;;;;24.47;42.42;101658.63;5049766;28;20558;-80
2022/08/13 01:36:28;;;;;;;8.18;4.38;;;;;;;24.41;42.90;101651.78;5035655;27;20109;-82
2022/08/13 01:38:53;;;;;;;6.10;4.22;;;;;;;24.40;42.63;101655.75;5044529;28;20034;-80
2022/08/13 01:41:21;;;;;;;6.20;4.85;;;;;;;24.40;42.50;101652.97;5032532;28;20030;-80
2022/08/13 01:43:48;;;;;;;7.80;5.00;;;;;;;24.38;42.50;101650.56;5032290;28;20029;-81
2022/08/13 01:46:13;;;;;;;5.97;5.15;;;;;;;24.38;42.43;101658.16;5031159;28;20564;-80
2022/08/13 01:51:39;;;;;;;;;;;;;;;24.37;42.48;101651.75;5051970;28;20106;-80
2022/08/13 01:54:05;;;;;;;6.20;3.92;;;;;;;24.38;42.63;101638.59;5032795;28;19913;-80
2022/08/13 01:56:32;;;;;;;8.38;4.32;;;;;;;24.32;42.69;101643.69;5045917;28;20022;-80
2022/08/13 01:59:01;;;;;;;7.95;4.43;;;;;;;24.30;42.44;101635.72;5047088;28;20032;-80
2022/08/13 02:01:27;;;;;;;4.80;3.70;;;;;;;24.26;42.68;101642.47;5048982;28;20029;-81
2022/08/13 02:03:56;;;;;;;7.30;4.45;;;;;;;24.18;42.86;101640.75;5047551;28;20029;-81
2022/08/13 02:06:30;;;;;;;5.00;4.15;;;;;;;24.10;43.00;101634.31;5050594;28;20161;-80
2022/08/13 02:08:59;;;;;;;5.10;4.03;;;;;;;24.09;42.72;101641.88;5034349;28;20487;-80
2022/08/13 02:11:26;;;;;;;7.47;4.20;;;;;;;24.05;43.28;101629.09;5015052;28;20030;-81
2022/08/13 02:13:54;;;;;;;6.03;4.40;;;;;;;24.07;43.10;101623.94;5030796;28;20056;-80
2022/08/13 02:16:19;;;;;;;6.93;4.70;;;;;;;24.08;43.21;101636.69;5044166;28;20166;-81
2022/08/13 02:18:45;;;;;;;5.13;4.38;;;;;;;24.06;43.07;101622.31;5050414;28;20111;-80
2022/08/13 02:21:11;;;;;;;5.75;3.97;;;;;;;24.05;42.78;101629.09;5036664;27;20025;-80
2022/08/13 02:23:37;;;;;;;5.82;3.97;;;;;;;24.05;42.71;101627.09;5031963;28;20037;-80
2022/08/13 02:26:05;;;;;;;5.72;4.05;;;;;;;24.07;42.85;101621.13;5039427;28;20025;-80
2022/08/13 02:28:39;;;;;;;5.80;3.88;;;;;;;23.98;43.16;101617.84;5049907;28;20507;-80
2022/08/13 02:31:06;;;;;;;6.18;4.60;;;;;;;23.96;42.96;101611.88;5050486;28;20033;-80
2022/08/13 02:33:34;;;;;;;5.05;4.05;;;;;;;23.89;43.11;101614.59;5049625;28;20486;-81
2022/08/13 02:36:06;;;;;;;6.65;4.25;;;;;;;23.91;43.24;101609.41;5049447;28;20471;-80
2022/08/13 02:38:31;;;;;;;5.60;4.03;;;;;;;23.93;43.28;101615.41;5039583;28;20068;-81
2022/08/13 02:43:43;;;;;;;6.53;3.95;;;;;;;23.92;43.05;101614.59;5031767;28;20049;-81
2022/08/13 02:46:09;;;;;;;6.78;3.90;;;;;;;23.83;43.29;101608.53;5031693;28;20480;-80
2022/08/13 02:48:36;;;;;;;7.40;4.10;;;;;;;23.95;42.90;101601.88;5031884;28;20040;-79
2022/08/13 02:51:01;;;;;;;5.75;4.25;;;;;;;23.99;42.90;101603.50;5041451;28;20054;-80
2022/08/13 02:53:27;;;;;;;7.97;3.70;;;;;;;23.87;42.86;101600.19;5050213;28;20056;-80
2022/08/13 02:55:53;;;;;;;5.70;4.15;;;;;;;23.83;42.97;101600.16;5039902;28;20570;-80
2022/08/13 02:58:19;;;;;;;5.75;4.20;;;;;;;23.75;43.11;101593.72;5039438;28;20108;-81
2022/08/13 03:00:52;;;;;;;5.72;4.53;;;;;;;23.69;43.25;101586.84;5049313;28;20033;-80
2022/08/13 03:03:19;;;;;;;8.40;4.45;;;;;;;23.61;43.51;101593.56;5023530;28;20037;-81
2022/08/13 03:05:45;;;;;;;4.78;4.28;;;;;;;23.65;43.96;101582.41;5036095;28;20036;-80
2022/08/13 03:08:11;;;;;;;6.68;4.65;;;;;;;23.53;43.92;101589.03;5032357;28;20029;-80
2022/08/13 03:10:39;;;;;;;5.68;4.68;;;;;;;23.48;44.06;101589.38;5034415;28;20033;-80
2022/08/13 03:13:15;;;;;;;6.90;4.75;;;;;;;23.47;44.30;101594.16;5029731;28;20639;-80
2022/08/13 03:15:46;;;;;;;6.35;4.75;;;;;;;23.47;44.09;101585.78;5036204;28;20031;-80
2022/08/13 03:18:12;;;;;;;7.80;4.35;;;;;;;23.53;44.00;101586.25;5040157;28;20054;-81
2022/08/13 03:20:40;;;;;;;5.90;3.88;;;;;;;23.53;43.68;101589.03;5050827;28;20028;-79
2022/08/13 03:23:08;;;;;;;4.70;4.05;;;;;;;23.44;44.07;101582.97;5049861;28;20115;-80
2022/08/13 03:25:35;;;;;;;5.50;4.40;;;;;;;23.48;43.86;101583.78;5049203;28;20069;-79
2022/08/13 03:28:01;;;;;;;8.07;4.18;;;;;;;23.45;43.67;101577.00;5043582;28;20029;-80
2022/08/13 03:30:28;;;;;;;8.52;4.22;;;;;;;23.51;43.69;101578.28;5030938;28;20108;-81
2022/08/13 03:32:54;;;;;;;4.85;4.35;;;;;;;23.47;43.99;101576.63;5031970;28;20034;-81
2022/08/13 03:35:25;;;;;;;6.03;4.32;;;;;;;23.43;44.08;101582.16;5030696;28;20025;-80
2022/08/13 03:37:54;;;;;;;5.55;3.88;;;;;;;23.41;43.77;101576.16;5034413;28;20029;-80
2022/08/13 03:40:22;;;;;;;5.32;4.18;;;;;;;23.42;43.87;101585.31;5049974;28;20029;-80
2022/08/13 03:42:48;;;;;;;9.32;4.45;;;;;;;23.45;43.94;101579.00;5034163;28;20425;-80
2022/08/13 03:45:16;;;;;;;6.68;4.75;;;;;;;23.42;43.95;101577.75;5029434;28;20034;-80
2022/08/13 03:47:42;;;;;;;8.77;4.28;;;;;;;23.42;43.61;101574.16;5031741;28;20379;-80
2022/08/13 03:50:11;;;;;;;6.70;3.72;;;;;;;23.40;43.89;101576.53;5050193;28;20073;-81
2022/08/13 03:52:38;;;;;;;8.40;4.60;;;;;;;23.43;43.42;101584.16;5038912;27;20029;-80
2022/08/13 03:55:22;;;;;;;4.82;3.45;;;;;;;23.33;43.93;101574.47;5046645;28;20284;-80
2022/08/13 03:57:48;;;;;;;5.13;3.67;;;;;;;23.33;43.90;101571.66;5033171;28;20026;-81
2022/08/13 04:00:13;;;;;;;7.05;4.25;;;;;;;23.32;43.92;101574.84;5047467;28;20029;-80
2022/08/13 04:02:41;;;;;;;7.60;4.00;;;;;;;23.24;44.02;101579.53;5048396;28;20039;-80
2022/08/13 04:05:16;;;;;;;6.45;3.88;;;;;;;23.23;44.18;101564.78;5044566;28;20042;-80
2022/08/13 04:07:43;;;;;;;5.95;4.57;;;;;;;23.20;44.07;101568.34;5033760;28;20113;-80
2022/08/13 04:10:11;;;;;;;6.47;4.13;;;;;;;23.11;44.15;101570.59;5030416;28;20034;-80
2022/08/13 04:12:37;;;;;;;6.93;4.68;;;;;;;23.12;44.23;101563.84;5029969;28;20033;-81
2022/08/13 04:15:03;;;;;;;7.05;4.90;;;;;;;23.23;43.78;101561.19;5033564;28;20025;-80
2022/08/13 04:17:29;;;;;;;5.00;3.70;;;;;;;23.25;43.58;101565.19;5050055;28;20033;-80
2022/08/13 04:19:57;;;;;;;8.90;4.40;;;;;;;23.26;43.74;101555.66;5049138;28;20028;-81
2022/08/13 04:22:23;;;;;;;6.95;3.88;;;;;;;23.21;43.58;101556.00;5034524;28;20071;-81
2022/08/13 04:24:50;;;;;;;7.00;4.25;;;;;;;23.18;43.61;101555.94;5031991;28;20044;-80
2022/08/13 04:27:15;;;;;;;5.25;3.63;;;;;;;23.24;43.67;101551.66;5048785;28;20029;-80
2022/08/13 04:29:41;;;;;;;6.22;3.60;;;;;;;23.32;43.10;101549.75;5049032;28;20029;-80
2022/08/13 04:32:06;;;;;;;9.48;4.43;;;;;;;23.31;42.90;101556.50;5047560;28;20064;-81
2022/08/13 04:34:32;;;;;;;5.82;4.25;;;;;;;23.20;43.33;101553.56;5048185;28;20036;-80
2022/08/13 04:36:57;;;;;;;5.55;4.13;;;;;;;23.13;43.51;101556.31;5048355;28;20033;-81
2022/08/13 04:39:24;;;;;;;7.15;4.20;;;;;;;23.12;43.47;101549.09;5049495;28;20048;-79
2022/08/13 04:41:50;;;;;;;5.72;4.20;;;;;;;23.13;43.32;101551.53;5033238;27;20162;-80
2022/08/13 04:44:16;;;;;;;7.50;3.95;;;;;;;23.10;43.47;101557.03;5029758;28;20120;-80
2022/08/13 04:46:42;;;;;;;4.47;3.60;;;;;;;23.09;43.24;101553.47;5028569;28;20116;-81
2022/08/13 04:49:10;;;;;;;5.68;4.03;;;;;;;23.02;43.50;101558.94;5028501;28;20030;-79
2022/08/13 04:51:36;;;;;;;5.38;4.00;;;;;;;23.10;43.29;101546.69;5031413;28;20138;-80
2022/08/13 04:54:02;;;;;;;6.10;4.68;;;;;;;23.07;43.29;101550.25;5045722;28;20058;-80
2022/08/13 04:56:28;;;;;;;6.45;4.05;;;;;;;23.06;43.43;101551.44;5041030;28;20514;-79
2022/08/13 04:58:53;;;;;;;6.03;4.18;;;;;;;23.06;43.31;101556.22;5047765;28;20170;-80
2022/08/13 05:01:21;;;;;;;7.25;4.38;;;;;;;23.00;43.65;101544.59;5040040;28;20047;-80
2022/08/13 05:03:47;;;;;;;4.70;4.03;;;;;;;23.03;43.70;101546.59;5039079;28;20511;-80
2022/08/13 05:06:21;;;;;;;9.20;4.85;;;;;;;22.99;43.42;101551.34;5042242;28;20405;-80
2022/08/13 05:08:49;;;;;;;7.90;4.38;;;;;;;23.02;43.44;101549.78;5049469;28;20073;-80
2022/08/13 05:11:18;;;;;;;7.68;3.72;;;;;;;23.04;43.65;101544.63;5038237;27;20674;-80
2022/08/13 05:13:45;;;;;;;10.18;3.88;;;;;;;23.03;43.57;101543.81;5043204;28;20056;-80
2022/08/13 05:16:17;;;;;;;6.97;4.68;;;;;;;23.04;43.61;101547.41;5048687;28;20029;-80
2022/08/13 05:18:54;;;;;;;5.18;3.85;;;;;;;22.93;43.62;101548.09;5049329;28;20029;-80
2022/08/13 05:21:22;;;;;;;5.75;3.80;;;;;;;22.95;43.44;101544.91;5037826;28;20441;-79
2022/08/13 05:23:55;;;;;;;4.70;3.63;;;;;;;22.94;43.67;101546.09;5045393;28;20029;-80
2022/08/13 05:26:23;;;;;;;5.50;3.85;;;;;;;22.94;43.55;101546.09;5029298;28;20391;-80
2022/08/13 05:28:50;;;;;;;4.97;3.92;;;;;;;23.01;43.52;101554.53;5031119;28;20415;-80
2022/08/13 05:31:19;;;;;;;5.60;4.40;;;;;;;23.01;43.51;101556.53;5048354;28;20420;-80
2022/08/13 05:33:45;;;;;;;7.28;3.70;;;;;;;23.11;43.33;101547.50;5048271;28;20025;-80
2022/08/13 05:36:13;;;;;;;5.28;3.90;;;;;;;23.14;43.23;101550.34;5046921;28;20483;-79
2022/08/13 05:38:40;;;;;;;6.40;3.80;;;;;;;23.26;43.00;101550.06;5048859;28;20483;-80
2022/08/13 05:41:07;;;;;;;6.38;3.85;;;;;;;23.33;43.52;101549.38;5038736;28;20108;-81
2022/08/13 05:43:36;;;;;;;5.13;3.80;;;;;;;23.44;43.34;101541.94;5030007;28;20025;-81
2022/08/13 05:46:08;;;;;;;5.43;3.45;;;;;;;23.59;43.47;101548.47;5040676;28;20049;-81
2022/08/13 05:48:39;;;;;;;4.60;3.50;;;;;;;23.67;43.26;101550.19;5048979;28;20021;-80
2022/08/13 05:51:13;;;;;;;9.20;3.78;;;;;;;23.71;43.28;101553.78;5047578;28;20025;-80
2022/08/13 05:53:39;;;;;;;4.82;3.30;;;;;;;23.76;43.17;101544.28;5048915;28;20074;-81
2022/08/13 05:56:06;;;;;;;5.55;3.40;;;;;;;23.95;42.98;101544.03;5036153;27;20112;-80
2022/08/13 05:58:32;;;;;;;8.40;4.28;;;;;;;24.12;43.46;101539.81;5048490;28;20033;-80
2022/08/13 06:03:43;;;;;;;5.45;3.92;;;;;;;24.47;43.90;101535.72;5020131;28;20031;-80
2022/08/13 06:06:11;;;;;;;4.60;2.90;;;;;;;24.60;44.03;101543.38;5028874;28;20034;-80
2022/08/13 06:08:42;;;;;;;7.13;4.50;;;;;;;24.79;44.10;101544.31;5027642;28;20599;-80
2022/08/13 06:11:15;;;;;;;9.02;3.92;;;;;;;25.04;44.99;101536.88;5030894;28;20033;-80
2022/08/13 06:13:43;;;;;;;14.77;5.03;;;;;;;25.31;44.80;101537.34;5033280;28;20449;-80
2022/08/13 06:16:11;;;;;;;9.82;5.10;;;;;;;25.56;44.90;101543.03;5032139;28;20037;-80
2022/08/13 06:18:40;;;;;;;6.32;3.83;;;;;;;25.77;45.39;101542.31;5032382;28;20021;-94
2022/08/13 06:21:11;;;;;;;10.63;4.43;;;;;;;25.96;45.92;101539.09;5038095;28;20029;-81
2022/08/13 06:23:38;;;;;;;8.77;4.22;;;;;;;26.12;46.13;101529.50;5051846;27;20025;-80
2022/08/13 06:26:07;;;;;;;8.65;6.13;;;;;;;26.16;46.77;101530.31;5051572;28;20043;-79
2022/08/13 06:28:34;;;;;;;8.17;4.27;;;;;;;26.28;46.62;101536.28;5042997;28;20025;-82
2022/08/13 06:31:05;;;;;;;6.75;4.22;;;;;;;26.42;46.54;101532.72;5030606;28;20145;-81
2022/08/13 06:33:32;;;;;;;9.82;5.13;;;;;;;26.53;46.87;101527.91;5032896;28;20479;-81
2022/08/13 06:36:02;;;;;;;6.63;4.60;;;;;;;26.64;47.53;101532.66;5037626;28;20053;-81
2022/08/13 06:38:36;;;;;;;8.93;5.03;;;;;;;26.74;47.42;101529.81;5051468;28;20057;-80
2022/08/13 06:41:06;;;;;;;7.82;4.95;;;;;;;26.82;47.46;101534.19;5045387;28;20037;-80
2022/08/13 06:43:43;;;;;;;7.13;4.40;;;;;;;26.89;47.43;101530.56;5031660;28;20066;-81
2022/08/13 06:46:11;;;;;;;9.57;4.57;;;;;;;26.97;47.24;101532.16;5031673;28;20025;-81
2022/08/13 06:48:39;;;;;;;17.48;9.25;;;;;;;27.04;47.26;101528.56;5010683;28;20029;-80
2022/08/13 06:51:07;;;;;;;7.55;5.07;;;;;;;27.14;47.08;101530.53;5029118;28;20025;-82
2022/08/13 06:53:37;;;;;;;7.90;5.05;;;;;;;27.19;47.30;101521.66;5050313;28;20382;-81
2022/08/13 06:56:05;;;;;;;9.45;4.70;;;;;;;27.28;47.16;101524.03;5036704;27;20034;-85
2022/08/13 06:58:32;;;;;;;7.70;5.15;;;;;;;27.41;46.83;101527.16;5046821;28;20587;-82
2022/08/13 07:00:59;;;;;;;9.05;4.68;;;;;;;27.41;46.98;101518.75;5037724;28;20028;-81
2022/08/13 07:03:31;;;;;;;9.88;4.47;;;;;;;27.46;46.50;101526.75;5050935;28;20436;-81
2022/08/13 07:05:57;;;;;;;9.07;5.63;;;;;;;27.57;46.45;101527.47;5042314;28;20022;-82
2022/08/13 07:08:24;;;;;;;7.93;5.88;;;;;;;27.58;46.55;101524.28;5033784;28;20026;-81
2022/08/13 07:11:21;;;;;;;11.32;4.70;;;;;;;27.65;46.35;101521.38;5045970;28;20087;-94
2022/08/13 07:13:39;;;;;;;14.93;4.45;;;;;;;27.58;46.26;101521.47;5038007;28;20041;-82
2022/08/13 07:16:08;;;;;;;6.43;3.85;;;;;;;27.64;46.21;101521.81;5033967;28;20048;-88
2022/08/13 07:18:34;;;;;;;12.77;4.72;;;;;;;27.83;45.76;101520.50;5032105;28;20032;-83
2022/08/13 07:21:04;;;;;;;6.00;4.78;;;;;;;27.74;45.93;101520.97;5045362;28;20021;-91
2022/08/13 07:23:32;;;;;;;6.07;4.03;;;;;;;27.85;45.69;101523.69;5053601;28;20036;-82
2022/08/13 07:26:02;;;;;;;7.95;4.85;;;;;;;27.85;45.48;101526.50;5047734;28;20042;-84
2022/08/13 07:28:29;;;;;;;8.52;4.88;;;;;;;27.87;45.46;101524.88;5043734;28;20026;-82
